YPGV/GOV METAR and TAF weather

Enter ICAO airport designator
Station Type Date Time Source
YPGV METAR 2019/08/23 17:30 UTC NOAA

YPGV 231730Z AUTO 00000KT 9999 // NCD 18/16 Q1015 RF00.0/000.0


Station Type Date Time Source
YPGV Decoded METAR 2019/08/23 17:30 UTC NOAA

Station name not available
Aug 23, 2019 - 01:30 PM EDT / 2019.08.23 1730 UTC
Wind: Calm:0
Visibility: greater than 7 mile(s):0
Temperature: 64 F (18 C)
Dew Point: 60 F (16 C)
Relative Humidity: 88%
Pressure (altimeter): 29.97 in. Hg (1015 hPa)
ob: YPGV 231730Z AUTO 00000KT 9999 // NCD 18/16 Q1015 RF00.0/000.0
cycle: 17

Station Type Date Time Source
YPGV TAF 2019/08/23 14:00 UTC NOAA

TAF YPGV 231203Z 2314/2402 15007KT 9999 FEW015

Example: see airport list